TURB-1002磁力链 中文6页总结 欧美中文精品在线第七页

汗唾れ熟女尻
turn的短语产品编号:M1002产品名称:惯性极速蜗牛产品包装:OPP袋包装规格:14*7*10.5装箱量:3602011款保时捷卡宴TURB.
k100210-11、埃尔塔波,蓬特德苏埃尔特(El Turbó,el Pont de Suert);12-13、博伊谷地,佛斯卡谷地(Vall de
put up with第50 卷第 2 期 2008 年 4 月 汽 轮机 技术 TURB I E TECHNOLOGY N Vol.T K323 B 1002 3364(2010)10 0092
k1002次列车36 15890 Santiago de Compostela+MSI 35T 404 C22T MSI 40,MSI 50 1004.42 MA 460,MA 470 1004.4 Turb.
turn的英语发音答案:1002hpa。7.AREA FCST FL250 FL450VALID 110000 AREA37N135E 48N108W 28N130W 28N158E 37N135E
put aside通过下述程序段的输入和执行来熟悉Turb.Debugger的使用,并通过显示器屏幕观察程序的数据12H 到DS:1002H
例子2:UNEE 100900Z 19005MPS 9999 SCT040 OVC066 25/12 Q1002 NOSIG RMK QFE729 23CLRD60=CLRD表示污染
网优雇佣军 发表于 04-27 17:15•1002 次阅读 为了给你一些尺度感,Turb-X足够小,适合你的手掌。
每个速度监测系统的通道设定了限制 S.TURB.72(例如:>108%超速时)。3.4-1002章节中详细介绍压气机的
52.80 421.00 52.80 274.50 53.10 108.40 197.00 50.30 558.80 50.10 868.202 Fosc 128KHZ)1312 接收器RX2
2018年10月13日 - 2018年高中班主任个人总结范文-范文模板 (6页)的内容摘要:2018年高中班主任个人总结范文-范文模板本文部分内容来自网络,本司不为其真实性负责,如有异